Time;durP1;ratioP1;P1;durP2;ratioP2;P2;SDS_P1;SDS_P2;PMS_P1;PMS_P2;Temp;Humidity;BMP_temperature;BMP_pressure;BME280_temperature;BME280_humidity;BME280_pressure;Samples;Min_cycle;Max_cycle;Signal;HPM_P1;HPM_P2
2021/07/23 00:01:45;;;;;;;;;13.25;10.00;;;;;24.07;45.12;101371.47;4937895;28;45493;-65
2021/07/23 00:04:11;;;;;;;;;13.00;12.50;;;;;24.03;45.44;101379.84;4937243;28;45749;-66
2021/07/23 00:06:36;;;;;;;;;15.00;14.00;;;;;23.99;45.19;101381.00;4934613;28;45592;-65
2021/07/23 00:09:02;;;;;;;;;14.25;12.00;;;;;23.94;45.44;101375.97;4924459;28;46260;-66
2021/07/23 00:11:28;;;;;;;;;12.50;10.25;;;;;23.89;45.30;101381.59;4922209;28;45435;-66
2021/07/23 00:13:53;;;;;;;;;17.00;15.00;;;;;23.86;46.12;101376.47;4925187;28;45411;-67
2021/07/23 00:16:18;;;;;;;;;14.25;13.50;;;;;23.83;45.87;101375.81;4926703;28;45463;-66
2021/07/23 00:18:44;;;;;;;;;15.25;11.50;;;;;23.79;46.33;101374.28;4911574;28;47713;-66
2021/07/23 00:21:09;;;;;;;;;13.25;11.75;;;;;23.75;45.86;101368.28;4937279;28;48872;-66
2021/07/23 00:23:34;;;;;;;;;12.50;12.50;;;;;23.72;46.33;101369.31;4922219;28;45421;-66
2021/07/23 00:26:00;;;;;;;;;10.75;10.75;;;;;23.69;46.38;101369.53;4924205;28;45606;-66
2021/07/23 00:28:25;;;;;;;;;12.00;12.00;;;;;23.65;46.60;101370.69;4926061;28;46085;-65
2021/07/23 00:30:50;;;;;;;;;15.25;13.75;;;;;23.60;46.43;101362.09;4926240;28;45523;-66
2021/07/23 00:33:16;;;;;;;;;13.50;12.50;;;;;23.58;46.41;101356.00;4926087;28;45408;-65
2021/07/23 00:35:41;;;;;;;;;12.25;11.50;;;;;23.55;46.83;101345.53;4922091;28;45400;-66
2021/07/23 00:38:06;;;;;;;;;15.00;13.75;;;;;23.51;46.78;101352.00;4937575;28;47849;-66
2021/07/23 00:40:35;;;;;;;;;15.00;13.25;;;;;23.47;47.29;101345.16;4936939;28;45571;-65
2021/07/23 00:43:00;;;;;;;;;11.50;11.50;;;;;23.44;47.35;101345.34;4937266;28;45296;-65
2021/07/23 00:45:25;;;;;;;;;12.00;12.00;;;;;23.41;47.33;101350.91;4935830;28;45480;-65
2021/07/23 00:48:03;;;;;;;;;14.50;14.50;;;;;23.37;47.60;101346.69;4922133;28;47344;-65
2021/07/23 00:50:30;;;;;;;;;12.00;12.00;;;;;23.34;47.69;101349.59;4921667;28;45459;-65
2021/07/23 00:52:57;;;;;;;;;14.75;12.75;;;;;23.28;47.81;101350.81;4924414;28;45987;-66
2021/07/23 00:55:23;;;;;;;;;15.00;13.00;;;;;23.24;48.00;101347.50;4926197;28;45393;-66
2021/07/23 00:57:49;;;;;;;;;14.50;13.25;;;;;23.19;48.07;101336.25;4925843;28;46849;-66
2021/07/23 01:00:16;;;;;;;;;14.50;13.50;;;;;23.17;47.94;101342.63;4925704;28;45528;-66
2021/07/23 01:02:41;;;;;;;;;13.50;12.00;;;;;23.13;47.99;101338.44;4921312;28;45305;-67
2021/07/23 01:05:07;;;;;;;;;12.75;12.25;;;;;23.10;48.29;101336.84;4937433;28;45570;-66
2021/07/23 01:07:35;;;;;;;;;14.75;12.50;;;;;23.06;48.51;101329.97;4925308;28;46041;-66
2021/07/23 01:10:01;;;;;;;;;10.75;10.75;;;;;23.02;48.74;101323.94;4925633;28;45450;-66
2021/07/23 01:12:28;;;;;;;;;14.75;14.75;;;;;22.98;48.64;101327.78;4925875;28;45478;-67
2021/07/23 01:14:54;;;;;;;;;13.50;12.00;;;;;22.95;48.90;101324.41;4923110;28;45577;-66
2021/07/23 01:17:20;;;;;;;;;13.50;13.50;;;;;22.93;48.85;101324.50;4920616;28;46169;-66
2021/07/23 01:19:52;;;;;;;;;14.75;12.50;;;;;22.90;49.42;101316.69;4935532;28;45339;-66
2021/07/23 01:22:20;;;;;;;;;15.00;13.25;;;;;22.85;49.46;101319.63;4936632;28;45388;-66
2021/07/23 01:24:47;;;;;;;;;12.00;10.75;;;;;22.81;49.21;101318.13;4932632;28;45292;-66
2021/07/23 01:27:13;;;;;;;;;15.00;13.75;;;;;22.79;49.60;101316.50;4924625;28;46333;-66
2021/07/23 01:29:38;;;;;;;;;12.00;12.00;;;;;22.75;49.69;101320.31;4920505;28;45606;-66
2021/07/23 01:32:04;;;;;;;;;14.50;12.75;;;;;22.72;49.74;101315.19;4922684;28;45447;-67
2021/07/23 01:34:29;;;;;;;;;13.25;11.25;;;;;22.68;49.57;101315.34;4913329;28;45265;-66
2021/07/23 01:36:55;;;;;;;;;13.25;12.25;;;;;22.63;49.82;101320.13;4936089;28;45265;-66
2021/07/23 01:39:21;;;;;;;;;17.00;15.00;;;;;22.60;50.06;101317.66;4935805;28;45443;-66
2021/07/23 01:41:47;;;;;;;;;13.25;12.25;;;;;22.58;50.32;101318.69;4921558;28;45586;-66
2021/07/23 01:44:12;;;;;;;;;16.50;12.00;;;;;22.55;50.29;101316.19;4920938;28;53531;-66
2021/07/23 01:46:38;;;;;;;;;15.00;14.25;;;;;22.52;50.50;101311.06;4925038;28;46084;-66
2021/07/23 01:49:03;;;;;;;;;14.00;11.50;;;;;22.49;50.37;101320.09;4925260;28;45562;-66
2021/07/23 01:51:28;;;;;;;;;17.75;16.00;;;;;22.46;50.66;101309.63;4925002;28;47847;-66
2021/07/23 01:53:54;;;;;;;;;11.75;11.75;;;;;22.44;50.62;101307.03;4922401;28;45276;-66
2021/07/23 01:56:19;;;;;;;;;14.50;13.00;;;;;22.41;50.62;101299.25;4920615;28;46371;-66
2021/07/23 01:58:45;;;;;;;;;16.00;14.25;;;;;22.38;51.05;101302.09;4935999;28;45449;-66
2021/07/23 02:01:10;;;;;;;;;14.25;14.25;;;;;22.36;51.00;101306.66;4935753;28;45422;-66
2021/07/23 02:03:35;;;;;;;;;14.50;13.25;;;;;22.35;51.13;101304.09;4933340;28;45390;-66
2021/07/23 02:06:01;;;;;;;;;18.00;17.75;;;;;22.31;51.03;101295.41;4922979;28;45902;-66
2021/07/23 02:08:26;;;;;;;;;17.50;14.75;;;;;22.27;51.23;101297.41;4920487;28;47483;-66
2021/07/23 02:10:51;;;;;;;;;14.75;14.75;;;;;22.24;51.47;101288.75;4923969;28;45435;-67
2021/07/23 02:13:17;;;;;;;;;19.50;16.00;;;;;22.21;51.38;101292.44;4924745;28;45498;-67
2021/07/23 02:15:43;;;;;;;;;13.75;13.25;;;;;22.19;51.60;101289.00;4924339;28;46357;-66
2021/07/23 02:18:09;;;;;;;;;16.50;13.50;;;;;22.16;51.59;101285.63;4925134;28;45398;-67
2021/07/23 02:20:34;;;;;;;;;19.00;13.25;;;;;22.14;51.89;101290.19;4923379;28;45470;-66
2021/07/23 02:23:00;;;;;;;;;15.75;13.00;;;;;22.11;51.89;101288.56;4926143;28;45468;-66
2021/07/23 02:25:25;;;;;;;;;15.75;15.75;;;;;22.10;52.03;101288.69;4927890;28;54739;-66
2021/07/23 02:27:50;;;;;;;;;15.25;14.75;;;;;22.08;52.13;101290.59;4927696;28;45614;-66
2021/07/23 02:30:16;;;;;;;;;17.75;15.25;;;;;22.06;52.11;101290.66;4928233;28;45400;-66
2021/07/23 02:32:41;;;;;;;;;16.00;15.00;;;;;22.03;52.00;101291.69;4923725;28;45506;-66
2021/07/23 02:35:07;;;;;;;;;19.25;16.75;;;;;21.99;52.43;101295.50;4924916;28;45431;-66
2021/07/23 02:37:33;;;;;;;;;19.00;16.25;;;;;21.95;52.19;101291.31;4920783;28;45378;-66
2021/07/23 02:39:59;;;;;;;;;16.00;16.00;;;;;21.93;52.81;101298.53;4939015;28;45505;-66
2021/07/23 02:42:24;;;;;;;;;17.75;14.75;;;;;21.90;52.62;101290.69;4937704;28;45492;-66
2021/07/23 02:44:50;;;;;;;;;17.25;15.00;;;;;21.89;52.57;101288.16;4924179;28;46993;-67
2021/07/23 02:47:15;;;;;;;;;17.75;17.75;;;;;21.87;52.92;101295.38;4923463;28;45268;-66
2021/07/23 02:49:40;;;;;;;;;17.25;14.50;;;;;21.84;53.07;101297.25;4927937;28;45727;-66
2021/07/23 02:52:06;;;;;;;;;19.25;16.25;;;;;21.80;53.09;101290.38;4927709;28;46645;-66
2021/07/23 02:54:31;;;;;;;;;12.50;12.50;;;;;21.77;53.10;101292.38;4927614;28;45350;-67
2021/07/23 02:56:56;;;;;;;;;16.75;15.25;;;;;21.73;53.59;101289.03;4924823;28;45453;-67
2021/07/23 02:59:22;;;;;;;;;16.00;14.50;;;;;21.70;53.65;101283.03;4923275;28;45394;-67
2021/07/23 03:01:47;;;;;;;;;18.00;17.25;;;;;21.68;53.62;101275.13;4926847;28;47207;-67
2021/07/23 03:04:12;;;;;;;;;20.75;19.00;;;;;21.65;53.54;101272.63;4927614;28;45993;-67
2021/07/23 03:06:38;;;;;;;;;22.25;20.50;;;;;21.63;53.88;101264.72;4927354;28;45318;-67
2021/07/23 03:09:03;;;;;;;;;20.50;16.75;;;;;21.61;53.57;101266.63;4925756;28;45427;-67
2021/07/23 03:11:28;;;;;;;;;21.75;18.00;;;;;21.58;53.78;101264.13;4922795;28;45377;-67
2021/07/23 03:13:55;;;;;;;;;20.25;15.75;;;;;21.56;53.76;101271.34;4925859;28;55646;-67
2021/07/23 03:16:21;;;;;;;;;16.50;13.75;;;;;21.53;54.02;101263.56;4935825;28;45449;-67
2021/07/23 03:18:46;;;;;;;;;19.00;16.75;;;;;21.51;54.14;101265.44;4938202;28;45241;-66
2021/07/23 03:21:12;;;;;;;;;17.75;15.50;;;;;21.48;54.20;101260.31;4937802;28;45485;-67
2021/07/23 03:23:37;;;;;;;;;21.00;19.00;;;;;21.47;54.41;101268.38;4922664;28;45990;-67
2021/07/23 03:26:09;;;;;;;;;18.25;18.00;;;;;21.45;54.30;101268.44;4923939;28;45374;-66
2021/07/23 03:28:34;;;;;;;;;18.25;16.00;;;;;21.44;54.61;101266.75;4926740;28;45351;-66
2021/07/23 03:31:00;;;;;;;;;24.50;19.50;;;;;21.42;54.38;101261.50;4926292;28;45317;-67
2021/07/23 03:33:25;;;;;;;;;21.00;18.50;;;;;21.39;54.81;101250.13;4926962;28;46231;-67
2021/07/23 03:35:50;;;;;;;;;19.50;18.25;;;;;21.38;54.61;101259.94;4923768;28;45541;-67
2021/07/23 03:38:16;;;;;;;;;20.25;19.00;;;;;21.35;54.98;101262.75;4922941;28;45565;-66
2021/07/23 03:40:41;;;;;;;;;21.25;17.75;;;;;21.32;54.80;101262.94;4926554;28;45387;-66
2021/07/23 03:43:06;;;;;;;;;18.50;18.00;;;;;21.32;54.94;101265.59;4926584;28;45478;-66
2021/07/23 03:45:31;;;;;;;;;22.50;21.50;;;;;21.30;55.06;101269.31;4926127;28;59493;-67
2021/07/23 03:47:57;;;;;;;;;21.00;18.25;;;;;21.29;55.42;101263.13;4924565;28;45344;-67
2021/07/23 03:50:22;;;;;;;;;19.75;18.00;;;;;21.26;55.21;101263.31;4922392;28;45376;-67
2021/07/23 03:52:47;;;;;;;;;26.00;21.75;;;;;21.25;54.97;101258.91;4925928;28;46610;-67
2021/07/23 03:55:13;;;;;;;;;26.00;24.25;;;;;21.24;55.71;101254.53;4933351;28;50440;-67
2021/07/23 03:57:39;;;;;;;;;21.00;19.75;;;;;21.23;55.60;101238.66;4937588;28;45351;-66
2021/07/23 04:00:08;;;;;;;;;22.50;21.50;;;;;21.21;55.83;101233.41;4937551;28;45469;-67
2021/07/23 04:02:35;;;;;;;;;20.75;20.25;;;;;21.20;56.63;101215.72;4921763;28;45562;-66
2021/07/23 04:05:01;;;;;;;;;23.50;21.25;;;;;21.17;56.46;101208.75;4924263;28;45363;-66
2021/07/23 04:07:29;;;;;;;;;22.25;19.75;;;;;21.17;56.46;101202.59;4926455;28;45412;-67
2021/07/23 04:09:54;;;;;;;;;21.25;18.75;;;;;21.14;56.75;101195.63;4925661;28;45505;-67
2021/07/23 04:12:19;;;;;;;;;25.00;20.50;;;;;21.12;56.66;101186.88;4925486;28;45939;-67
2021/07/23 04:14:45;;;;;;;;;23.25;22.75;;;;;21.10;56.52;101190.56;4921478;28;45593;-67
2021/07/23 04:17:10;;;;;;;;;20.75;20.00;;;;;21.07;56.45;101194.28;4921648;28;45466;-67
2021/07/23 04:19:35;;;;;;;;;29.00;25.50;;;;;21.05;56.84;101196.16;4925616;28;45404;-67
2021/07/23 04:22:01;;;;;;;;;21.50;19.50;;;;;21.04;56.63;101209.53;4925347;28;46086;-67
2021/07/23 04:24:26;;;;;;;;;26.75;23.25;;;;;21.03;56.88;101210.50;4925421;28;45486;-67
2021/07/23 04:26:52;;;;;;;;;20.50;18.50;;;;;20.99;56.59;101200.00;4922742;28;45457;-67
2021/07/23 04:29:17;;;;;;;;;21.00;21.00;;;;;21.00;57.01;101198.22;4921361;28;45508;-67
2021/07/23 04:31:42;;;;;;;;;22.50;21.00;;;;;20.99;56.68;101196.50;4925656;28;46032;-67
2021/07/23 04:34:08;;;;;;;;;27.50;23.00;;;;;20.98;57.00;101197.44;4932255;28;46038;-66
2021/07/23 04:36:35;;;;;;;;;32.00;23.00;;;;;20.98;56.90;101192.13;4936448;28;45529;-66
2021/07/23 04:39:03;;;;;;;;;26.25;23.00;;;;;20.98;56.43;101195.66;4936187;28;45492;-66
2021/07/23 04:41:28;;;;;;;;;20.50;20.25;;;;;20.99;57.00;101191.16;4920566;28;46346;-68
2021/07/23 04:43:54;;;;;;;;;28.25;28.00;;;;;21.00;57.11;101193.75;4922080;28;45330;-66
2021/07/23 04:46:19;;;;;;;;;25.00;23.25;;;;;21.01;56.75;101197.28;4925013;28;48372;-66
2021/07/23 04:48:44;;;;;;;;;27.25;24.50;;;;;21.02;56.97;101193.66;4924816;28;50424;-66
2021/07/23 04:51:10;;;;;;;;;27.25;26.75;;;;;21.02;56.89;101193.66;4923918;28;54630;-67
2021/07/23 04:53:35;;;;;;;;;29.00;24.00;;;;;21.03;56.96;101195.38;4920577;28;45303;-67
2021/07/23 04:56:05;;;;;;;;;22.25;21.00;;;;;21.04;57.00;101196.22;4922754;28;45463;-67
2021/07/23 04:58:30;;;;;;;;;27.00;24.75;;;;;21.04;56.73;101193.56;4925133;28;45511;-66
2021/07/23 05:00:56;;;;;;;;;24.00;20.50;;;;;21.03;56.84;101190.06;4924519;28;46173;-67
2021/07/23 05:03:24;;;;;;;;;25.50;21.75;;;;;21.06;56.85;101199.66;4928016;28;45504;-66
2021/07/23 05:05:50;;;;;;;;;29.50;21.00;;;;;21.09;56.84;101199.50;4928506;28;45518;-65
2021/07/23 05:08:15;;;;;;;;;28.00;22.00;;;;;21.10;56.46;101198.56;4933998;28;45419;-66
2021/07/23 05:10:42;;;;;;;;;27.00;23.50;;;;;21.11;56.78;101201.13;4935241;28;46174;-65
2021/07/23 05:13:08;;;;;;;;;31.25;26.25;;;;;21.15;56.75;101210.66;4935213;28;45572;-65
2021/07/23 05:15:34;;;;;;;;;25.50;25.00;;;;;21.18;56.15;101210.47;4935041;28;45322;-65
2021/07/23 05:18:00;;;;;;;;;29.25;24.75;;;;;21.21;56.60;101204.09;4934967;28;45938;-66
2021/07/23 05:20:25;;;;;;;;;25.00;24.75;;;;;21.26;56.25;101206.50;4917973;28;48060;-67
2021/07/23 05:22:51;;;;;;;;;27.25;26.25;;;;;21.30;56.33;101198.25;4922770;28;45393;-66
2021/07/23 05:25:16;;;;;;;;;24.50;22.75;;;;;21.33;56.04;101198.09;4924717;28;45564;-65
2021/07/23 05:27:42;;;;;;;;;27.50;22.50;;;;;21.40;56.26;101201.28;4924217;28;45398;-66
2021/07/23 05:30:08;;;;;;;;;27.00;22.00;;;;;21.41;55.92;101193.19;4922666;28;45441;-65
2021/07/23 05:32:33;;;;;;;;;26.50;26.50;;;;;21.45;55.61;101195.69;4919357;28;45446;-65
2021/07/23 05:34:59;;;;;;;;;32.50;25.75;;;;;21.50;55.63;101190.94;4921886;28;45395;-66
2021/07/23 05:37:24;;;;;;;;;25.75;22.75;;;;;21.53;55.70;101191.63;4923161;28;45267;-66
2021/07/23 05:39:50;;;;;;;;;24.00;21.25;;;;;21.56;55.44;101188.78;4923605;28;46343;-66
2021/07/23 05:42:15;;;;;;;;;23.50;23.00;;;;;21.61;55.55;101185.84;4923559;28;45407;-67
2021/07/23 05:44:40;;;;;;;;;23.00;22.00;;;;;21.65;55.31;101186.53;4919359;28;45541;-67
2021/07/23 05:47:06;;;;;;;;;21.50;21.25;;;;;21.69;55.59;101186.25;4920499;28;45358;-66
2021/07/23 05:49:31;;;;;;;;;24.50;21.75;;;;;21.74;55.22;101186.00;4924188;28;45938;-67
2021/07/23 05:51:56;;;;;;;;;23.25;21.00;;;;;21.75;55.17;101183.22;4928951;28;45375;-66
2021/07/23 05:54:22;;;;;;;;;24.75;23.75;;;;;21.80;54.92;101189.13;4920543;28;45377;-69
2021/07/23 05:56:47;;;;;;;;;18.25;17.75;;;;;21.90;55.07;101180.56;4935137;28;45381;-70
2021/07/23 05:59:13;;;;;;;;;23.50;19.75;;;;;21.91;54.73;101188.47;4930359;28;45652;-68
2021/07/23 06:01:38;;;;;;;;;26.25;23.25;;;;;21.95;55.06;101182.03;4932658;28;45328;-71
2021/07/23 06:04:04;;;;;;;;;23.00;20.50;;;;;21.99;54.58;101172.00;4932691;28;45323;-69
2021/07/23 06:06:30;;;;;;;;;26.25;22.50;;;;;22.07;54.51;101164.38;4931731;28;45470;-69
2021/07/23 06:08:56;;;;;;;;;28.50;25.00;;;;;22.17;54.57;101170.03;4938572;28;45332;-70
2021/07/23 06:11:22;;;;;;;;;25.50;23.25;;;;;22.24;54.32;101158.06;4921909;28;45510;-69
2021/07/23 06:13:47;;;;;;;;;25.75;23.25;;;;;22.30;54.35;101160.34;4925887;28;45388;-68
2021/07/23 06:16:13;;;;;;;;;29.75;25.00;;;;;22.34;54.16;101155.69;4926296;28;45456;-69
2021/07/23 06:18:39;;;;;;;;;34.25;27.50;;;;;22.36;54.05;101149.28;4926815;28;46899;-68
2021/07/23 06:21:07;;;;;;;;;25.50;25.50;;;;;22.38;53.62;101147.38;4924327;28;45340;-70
2021/07/23 06:23:33;;;;;;;;;21.50;21.50;;;;;22.42;53.41;101145.38;4921819;28;45545;-67
2021/07/23 06:26:02;;;;;;;;;23.00;22.25;;;;;22.46;53.60;101142.41;4924126;28;45533;-68
2021/07/23 06:28:28;;;;;;;;;24.00;22.50;;;;;22.46;53.97;101144.22;4925885;28;46407;-70
2021/07/23 06:31:00;;;;;;;;;19.75;19.25;;;;;22.53;53.69;101140.22;4931042;28;45357;-68
2021/07/23 06:33:26;;;;;;;;;34.25;29.00;;;;;22.61;53.73;101137.91;4933463;28;45336;-69
2021/07/23 06:35:51;;;;;;;;;26.00;22.50;;;;;22.65;53.20;101142.09;4935266;28;45429;-72
2021/07/23 06:38:17;;;;;;;;;26.00;21.25;;;;;22.71;53.19;101137.31;4937382;28;46189;-72
2021/07/23 06:40:42;;;;;;;;;32.00;28.75;;;;;22.75;53.09;101139.69;4925298;28;48125;-71
2021/07/23 06:43:07;;;;;;;;;25.25;25.25;;;;;22.83;53.02;101126.69;4926305;28;45359;-71
2021/07/23 06:45:33;;;;;;;;;24.75;22.25;;;;;22.88;52.84;101127.25;4925939;28;45491;-71
2021/07/23 06:47:58;;;;;;;;;24.75;22.50;;;;;22.95;52.37;101125.00;4923816;28;45916;-71
2021/07/23 06:50:23;;;;;;;;;23.50;19.75;;;;;22.99;52.67;101123.91;4920868;28;45360;-72
2021/07/23 06:52:49;;;;;;;;;25.25;24.00;;;;;23.07;52.27;101123.38;4925593;28;45409;-71
2021/07/23 06:55:14;;;;;;;;;27.00;23.00;;;;;23.13;52.28;101131.00;4926058;28;45527;-70
2021/07/23 06:57:39;;;;;;;;;27.75;23.50;;;;;23.21;51.95;101128.66;4926100;28;47205;-70
2021/07/23 07:00:05;;;;;;;;;24.25;22.00;;;;;23.27;51.90;101125.56;4924131;28;45412;-71
2021/07/23 07:02:31;;;;;;;;;28.00;24.50;;;;;23.36;51.91;101117.88;4921312;28;46389;-70
2021/07/23 07:04:58;;;;;;;;;23.00;22.00;;;;;23.43;51.93;101122.75;4922758;28;45475;-70
2021/07/23 07:07:23;;;;;;;;;26.75;24.50;;;;;23.51;51.43;101116.84;4925415;28;47161;-70
2021/07/23 07:09:48;;;;;;;;;24.50;23.50;;;;;23.58;51.51;101119.97;4928797;28;45623;-72
2021/07/23 07:12:14;;;;;;;;;20.50;18.25;;;;;23.65;51.08;101126.59;4936108;28;45591;-71
2021/07/23 07:14:39;;;;;;;;;23.75;21.25;;;;;23.72;51.18;101120.72;4936558;28;45903;-71
2021/07/23 07:17:05;;;;;;;;;22.50;21.50;;;;;23.77;50.49;101112.41;4922626;28;47219;-70
2021/07/23 07:19:30;;;;;;;;;21.50;20.25;;;;;23.84;50.39;101104.81;4925385;28;45255;-70
2021/07/23 07:21:55;;;;;;;;;22.25;20.00;;;;;23.89;50.30;101102.69;4925950;28;45497;-69
2021/07/23 07:24:21;;;;;;;;;25.00;18.75;;;;;23.98;50.12;101102.03;4931011;28;45482;-70
2021/07/23 07:26:48;;;;;;;;;18.25;18.00;;;;;24.04;50.32;101101.59;4930580;28;46354;-71
2021/07/23 07:29:15;;;;;;;;;26.75;23.75;;;;;24.09;50.30;101104.78;4919112;28;46199;-69
2021/07/23 07:31:40;;;;;;;;;28.00;25.00;;;;;24.17;49.69;101110.47;4927304;28;45442;-70
2021/07/23 07:34:06;;;;;;;;;26.75;21.50;;;;;24.28;49.68;101111.50;4924201;28;45439;-69
2021/07/23 07:36:32;;;;;;;;;26.75;23.75;;;;;24.35;49.45;101118.97;4926017;28;45628;-70
2021/07/23 07:38:58;;;;;;;;;19.50;18.00;;;;;24.44;49.44;101114.78;4932054;28;45630;-70
2021/07/23 07:41:25;;;;;;;;;22.00;19.50;;;;;24.54;48.94;101117.66;4923766;28;45475;-71
2021/07/23 07:43:51;;;;;;;;;26.50;21.25;;;;;24.64;48.96;101117.84;4923533;28;45353;-71
2021/07/23 07:46:17;;;;;;;;;21.25;20.00;;;;;24.72;48.91;101118.16;4926251;28;45310;-71
2021/07/23 07:48:43;;;;;;;;;23.25;21.00;;;;;24.83;48.97;101117.34;4926471;28;45582;-71
2021/07/23 07:51:08;;;;;;;;;19.25;19.25;;;;;24.95;48.58;101108.38;4920801;28;45360;-71
2021/07/23 07:53:37;;;;;;;;;21.00;19.50;;;;;25.07;48.31;101109.28;4927606;28;45617;-72
2021/07/23 07:56:10;;;;;;;;;27.00;22.50;;;;;25.18;48.05;101099.50;4917116;28;45409;-71
2021/07/23 07:58:36;;;;;;;;;21.50;18.75;;;;;25.27;47.51;101097.97;4924084;28;46835;-71
2021/07/23 08:01:11;;;;;;;;;25.00;24.25;;;;;25.36;47.51;101094.59;4930061;28;45275;-72
2021/07/23 08:03:37;;;;;;;;;25.75;23.25;;;;;25.44;47.15;101088.63;4923663;28;45602;-72
2021/07/23 08:06:07;;;;;;;;;27.00;20.00;;;;;25.53;46.89;101093.28;4922401;28;46384;-72
2021/07/23 08:08:33;;;;;;;;;25.00;20.75;;;;;25.62;46.72;101097.03;4931924;28;45527;-71
2021/07/23 08:10:58;;;;;;;;;20.50;18.00;;;;;25.71;46.91;101096.31;4917057;28;45453;-69
2021/07/23 08:13:26;;;;;;;;;21.25;19.25;;;;;25.80;46.62;101092.09;4921597;28;52225;-70
2021/07/23 08:15:55;;;;;;;;;20.25;18.00;;;;;25.93;46.46;101086.63;4921514;28;47121;-70
2021/07/23 08:18:21;;;;;;;;;21.50;19.25;;;;;26.04;45.95;101082.09;4921627;28;45471;-70
2021/07/23 08:20:50;;;;;;;;;22.00;17.75;;;;;26.18;45.95;101082.84;4908452;28;45494;-70
2021/07/23 08:23:16;;;;;;;;;20.25;19.25;;;;;26.33;45.59;101076.22;4928712;28;45514;-69
2021/07/23 08:25:41;;;;;;;;;27.00;22.25;;;;;26.46;45.36;101076.94;4923027;28;45536;-70
2021/07/23 08:28:06;;;;;;;;;22.00;20.50;;;;;26.62;44.97;101065.78;4926507;28;45853;-71
2021/07/23 08:30:32;;;;;;;;;24.50;21.00;;;;;26.79;45.18;101069.78;4928529;28;45311;-71
2021/07/23 08:32:57;;;;;;;;;22.75;19.25;;;;;26.93;43.82;101070.44;4920027;28;51389;-71
2021/07/23 08:35:22;;;;;;;;;23.25;18.50;;;;;27.02;43.54;101069.69;4932632;28;51142;-71
2021/07/23 08:37:48;;;;;;;;;22.50;19.50;;;;;27.10;43.79;101068.06;4922629;28;45592;-71
2021/07/23 08:40:13;;;;;;;;;27.00;21.75;;;;;27.22;43.45;101063.50;4925883;28;45269;-70
2021/07/23 08:42:38;;;;;;;;;23.25;21.00;;;;;27.39;42.70;101071.94;4924574;28;45387;-71
2021/07/23 08:45:06;;;;;;;;;24.00;18.75;;;;;27.58;42.38;101069.38;4934969;28;45450;-71
2021/07/23 08:47:33;;;;;;;;;23.75;23.25;;;;;27.79;42.02;101063.94;4918709;28;45590;-71
2021/07/23 08:49:59;;;;;;;;;21.25;18.25;;;;;27.92;41.49;101061.91;4921215;28;45530;-71
2021/07/23 08:52:44;;;;;;;;;21.25;21.25;;;;;28.15;40.90;101048.22;4921785;28;45450;-72
2021/07/23 08:55:12;;;;;;;;;24.75;21.25;;;;;28.34;40.09;101045.59;4926635;28;45437;-72
2021/07/23 08:57:37;;;;;;;;;23.00;20.25;;;;;28.46;39.75;101045.50;4921534;28;45518;-71
2021/07/23 09:00:18;;;;;;;;;20.75;19.50;;;;;28.58;40.02;101044.41;4929466;28;45324;-72
2021/07/23 09:02:49;;;;;;;;;23.75;22.50;;;;;28.66;39.92;101032.91;4922010;28;45347;-71
2021/07/23 09:05:15;;;;;;;;;26.00;26.00;;;;;28.71;39.58;101038.72;4926699;28;47168;-71
2021/07/23 09:07:41;;;;;;;;;25.75;22.50;;;;;28.75;39.61;101038.28;4927388;28;45591;-71
2021/07/23 09:10:07;;;;;;;;;25.00;22.00;;;;;28.75;39.15;101035.59;4924940;28;45356;-71
2021/07/23 09:12:53;;;;;;;;;24.50;20.50;;;;;28.83;38.67;101036.72;4922638;28;45656;-71
2021/07/23 09:15:27;;;;;;;;;22.75;21.75;;;;;28.91;38.83;101032.34;4906600;28;47091;-72
2021/07/23 09:17:54;;;;;;;;;20.75;19.25;;;;;28.99;38.83;101037.84;4927572;28;45502;-71
2021/07/23 09:20:22;;;;;;;;;23.50;19.75;;;;;29.06;38.74;101031.91;4922005;28;45511;-72
2021/07/23 09:22:50;;;;;;;;;19.75;17.75;;;;;29.16;38.21;101032.75;4924109;28;45276;-69
2021/07/23 09:25:41;;;;;;;;;22.00;21.00;;;;;29.35;37.99;101029.16;4921745;28;46306;-70
2021/07/23 09:28:23;;;;;;;;;19.50;17.50;;;;;29.56;37.88;101013.63;4917553;28;45304;-71
2021/07/23 09:30:49;;;;;;;;;20.50;20.50;;;;;29.78;38.07;101012.41;4928890;28;45466;-71
2021/07/23 09:33:23;;;;;;;;;22.75;20.50;;;;;30.05;37.52;101016.94;4916677;28;45404;-72
2021/07/23 09:35:54;;;;;;;;;22.00;20.50;;;;;30.31;36.73;101005.44;4928920;28;45415;-71
2021/07/23 09:38:22;;;;;;;;;22.50;20.75;;;;;30.54;36.54;101005.84;4927131;28;45365;-72
2021/07/23 09:40:48;;;;;;;;;20.50;19.75;;;;;30.76;35.99;101003.69;4926210;28;46425;-71
2021/07/23 09:43:29;;;;;;;;;17.00;17.00;;;;;31.05;35.40;101004.25;4925483;28;45481;-72
2021/07/23 09:45:55;;;;;;;;;24.50;22.25;;;;;31.37;35.42;100994.69;4927494;28;46544;-70
2021/07/23 09:48:20;;;;;;;;;25.75;23.25;;;;;31.69;34.52;100993.16;4921752;28;45354;-71
2021/07/23 09:50:46;;;;;;;;;20.25;18.50;;;;;31.95;33.71;100987.72;4925591;28;45532;-72
2021/07/23 09:53:14;;;;;;;;;22.25;21.25;;;;;32.16;34.40;100977.25;4921049;28;45349;-72
2021/07/23 09:55:43;;;;;;;;;18.75;17.00;;;;;32.36;33.42;100971.53;4925209;28;46206;-72
2021/07/23 09:58:08;;;;;;;;;19.25;18.25;;;;;32.54;32.76;100974.97;4927046;28;45579;-72
2021/07/23 10:00:38;;;;;;;;;26.25;23.25;;;;;32.63;32.20;100967.66;4920467;28;45388;-71
2021/07/23 10:03:07;;;;;;;;;21.00;19.00;;;;;32.78;32.58;100957.84;4918836;28;45322;-72
2021/07/23 10:05:37;;;;;;;;;21.25;19.75;;;;;32.97;31.62;100955.78;4914885;28;47452;-71
2021/07/23 10:08:08;;;;;;;;;19.75;19.75;;;;;33.20;31.80;100945.06;4916872;28;45617;-71
2021/07/23 10:10:37;;;;;;;;;23.50;22.00;;;;;33.31;31.31;100938.44;4926598;28;45588;-71
2021/07/23 10:13:03;;;;;;;;;25.75;24.50;;;;;33.34;31.48;100930.78;4922536;28;45459;-72
2021/07/23 10:15:29;;;;;;;;;26.00;25.25;;;;;33.37;29.88;100925.03;4926850;28;46107;-72
2021/07/23 10:17:55;;;;;;;;;17.00;16.00;;;;;33.18;29.61;100925.41;4920608;28;45563;-72
2021/07/23 10:20:21;;;;;;;;;19.75;16.50;;;;;33.09;29.28;100929.19;4920650;28;45355;-70
2021/07/23 10:22:54;;;;;;;;;22.50;19.75;;;;;33.07;29.60;100923.09;4917041;28;46839;-71
2021/07/23 10:25:25;;;;;;;;;14.00;14.00;;;;;32.96;29.74;100906.13;4919818;28;45998;-71
2021/07/23 10:27:50;;;;;;;;;32.50;29.75;;;;;32.70;29.83;100905.50;4922488;28;45277;-70
2021/07/23 10:30:30;;;;;;;;;18.25;18.25;;;;;32.35;29.15;100905.66;4922160;28;45485;-71
2021/07/23 10:32:55;;;;;;;;;22.50;21.50;;;;;32.08;30.22;100905.97;4918292;28;45608;-71
2021/07/23 10:35:24;;;;;;;;;22.25;20.25;;;;;31.84;30.34;100893.22;4933904;28;45463;-69
2021/07/23 10:37:54;;;;;;;;;22.00;20.25;;;;;31.59;30.22;100893.16;4933745;28;45466;-71
2021/07/23 10:40:22;;;;;;;;;21.00;18.75;;;;;31.31;31.04;100884.41;4928926;28;45449;-72
2021/07/23 10:42:48;;;;;;;;;22.25;20.00;;;;;31.07;31.02;100882.44;4926460;28;45393;-72
2021/07/23 10:45:19;;;;;;;;;22.75;19.75;;;;;31.07;30.92;100887.84;4926047;28;46622;-71
2021/07/23 10:47:51;;;;;;;;;23.00;18.25;;;;;31.20;30.66;100881.97;4921915;28;45388;-71
2021/07/23 10:50:25;;;;;;;;;23.50;20.00;;;;;31.40;30.80;100878.06;4934323;28;45410;-71
2021/07/23 10:52:51;;;;;;;;;17.75;17.75;;;;;31.57;30.60;100876.25;4925946;28;46011;-72
2021/07/23 10:55:27;;;;;;;;;19.50;18.00;;;;;31.72;30.54;100865.63;4925900;28;46104;-72
2021/07/23 10:58:04;;;;;;;;;17.75;16.50;;;;;31.94;30.40;100858.72;4926262;28;45583;-71
2021/07/23 11:00:48;;;;;;;;;20.00;19.00;;;;;32.19;29.77;100851.50;4926197;28;45428;-73
2021/07/23 11:03:41;;;;;;;;;22.25;20.50;;;;;32.40;29.58;100850.97;4925792;28;45559;-70
2021/07/23 11:06:35;;;;;;;;;20.75;18.50;;;;;32.74;29.58;100845.34;4923524;28;47030;-70
2021/07/23 11:09:04;;;;;;;;;22.25;20.25;;;;;33.09;29.61;100832.38;4920253;28;47567;-69